Hoquiam, WA

12:43 PM PST on February 10, 2016 (GMT -0800)
Bowerman | | Change Station
CLOSE
Current Station
Airport
Location: Hoquiam,
Elevation: 13 ft
Nearby Weather Stations

Elev 13 ft 46.97 °N, 123.93 °W | Updated 3 minutes ago

Light Rain
Light Rain Mist
53 °F
Feels Like 53 °F
N
13
Wind Variable Wind from SSE

Today
High -- | Low -- °F
--% Chance of Precip.
Yesterday
High -- | Low -- °F
Precip. -- in
Pressure 30.21 in
Visibility 1.8 miles
Clouds Mostly Cloudy 800 ft
Overcast 1300 ft
Dew Point 52 °F
Humidity 96%
Rainfall 0.03 in
Snow Depth Not available.
7:28 AM 5:32 PM
Waxing Crescent, 7% visible
SPECI KHQM 102040Z AUTO 16011KT 1 3/4SM -RA BR BKN008 OVC013 12/11 A3021 RMK AO2 PK WND 17027/2009 VIS 1 1/4V2 1/2 RAB19 P0001 T01170111
Pressure 30.21 in
Visibility 1.8 miles
Clouds Mostly Cloudy 800 ft
Overcast 1300 ft
Dew Point 52 °F
Humidity 96%
Rainfall 0.03 in
Snow Depth Not available.
7:28 AM 5:32 PM
Waxing Crescent, 7% visible
SPECI KHQM 102040Z AUTO 16011KT 1 3/4SM -RA BR BKN008 OVC013 12/11 A3021 RMK AO2 PK WND 17027/2009 VIS 1 1/4V2 1/2 RAB19 P0001 T01170111

10-Day Weather Forecast

Almanac

Astronomy

Feb. 10, 2016 Rise Set
Actual Time
Civil Twilight
Nautical Twilight
Astronomical Twilight
Moon
Length of Visible Light
Length of Day
Tomorrow will be .
, % of the Moon is Illuminated

Today's Extremes

State Highs State Lows

Community

WunderPhotos

Upload Photos

1,891,945 photos uploaded!

WunderBlog® & News

Nearby

Air Quality

  Air Quality AQ Index Pollutant
Not available.

Snow Depth

Station Depth Elevation

Earthquake Activity

City Distance Mag. Time & Date
Minimum magnitude displayed is 2.5.

Coastal Water Temperatures

Place Temperature

Stations

Nearby Weather Stations

Station Location Temp. Windchill Dew Point Humidity Wind Precip. Elev Updated Type
                   

Watches & Warnings

There are currently no watches in effect.